Time;durP1;ratioP1;P1;durP2;ratioP2;P2;SDS_P1;SDS_P2;PMS_P1;PMS_P2;Temp;Humidity;BMP_temperature;BMP_pressure;BME280_temperature;BME280_humidity;BME280_pressure;Samples;Min_cycle;Max_cycle;Signal;HPM_P1;HPM_P2
2021/01/11 00:00:34;;;;;;;4.35;1.15;;;13.40;94.50;;;;;;4128587;34;20436;-90
2021/01/11 00:03:02;;;;;;;6.28;1.92;;;13.20;95.60;;;;;;4122632;34;20069;-87
2021/01/11 00:05:30;;;;;;;7.80;1.17;;;13.20;96.30;;;;;;4141423;34;20393;-93
2021/01/11 00:07:58;;;;;;;14.75;1.50;;;13.20;96.30;;;;;;4134987;34;20246;-90
2021/01/11 00:10:26;;;;;;;3.50;1.30;;;13.30;96.10;;;;;;4134468;34;20073;-91
2021/01/11 00:12:54;;;;;;;5.45;0.93;;;13.30;96.60;;;;;;4135310;34;20408;-90
2021/01/11 00:15:22;;;;;;;10.07;1.70;;;13.20;97.00;;;;;;4135296;34;20067;-86
2021/01/11 00:17:51;;;;;;;7.85;2.35;;;13.30;96.70;;;;;;4144427;34;20060;-87
2021/01/11 00:20:19;;;;;;;8.43;1.50;;;13.30;96.30;;;;;;4135030;34;20059;-87
2021/01/11 00:22:47;;;;;;;3.95;1.20;;;13.40;96.30;;;;;;4139793;34;20907;-94
2021/01/11 00:25:15;;;;;;;4.45;1.08;;;13.50;97.30;;;;;;4127566;34;20314;-89
2021/01/11 00:27:43;;;;;;;5.78;1.30;;;13.50;97.40;;;;;;4146396;34;20135;-89
2021/01/11 00:30:11;;;;;;;9.10;1.75;;;13.40;97.80;;;;;;4128610;34;20851;-90
2021/01/11 00:32:40;;;;;;;13.50;1.58;;;13.50;96.90;;;;;;4133345;34;20102;-88
2021/01/11 00:35:09;;;;;;;7.97;1.52;;;13.40;96.00;;;;;;4142810;34;20090;-86
2021/01/11 00:37:37;;;;;;;4.95;1.23;;;13.40;95.40;;;;;;4134375;34;20072;-92
2021/01/11 00:40:07;;;;;;;5.62;1.00;;;13.40;95.40;;;;;;4145155;34;20087;-87
2021/01/11 00:42:36;;;;;;;4.40;1.73;;;13.40;95.90;;;;;;4145085;34;20061;-88
2021/01/11 00:45:06;;;;;;;4.20;1.17;;;13.40;95.90;;;;;;4143099;34;20257;-94
2021/01/11 00:47:42;;;;;;;5.25;1.37;;;13.40;95.80;;;;;;4149036;34;20450;-92
2021/01/11 00:50:12;;;;;;;10.88;1.37;;;13.40;96.10;;;;;;4135562;34;20086;-90
2021/01/11 00:52:42;;;;;;;6.20;0.90;;;13.30;96.60;;;;;;4136434;34;20083;-90
2021/01/11 00:55:12;;;;;;;5.80;1.58;;;13.40;96.90;;;;;;4136617;34;20074;-87
2021/01/11 00:57:42;;;;;;;3.42;1.37;;;13.40;97.60;;;;;;4148329;34;20086;-89
2021/01/11 01:00:12;;;;;;;4.28;1.20;;;13.40;97.90;;;;;;4135877;34;20429;-87
2021/01/11 01:02:44;;;;;;;4.70;1.37;;;13.40;98.50;;;;;;4140010;34;20108;-94
2021/01/11 01:05:14;;;;;;;3.60;1.00;;;13.60;99.40;;;;;;4135432;34;20099;-88
2021/01/11 01:07:43;;;;;;;4.18;1.08;;;13.60;99.30;;;;;;4141014;34;20134;-89
2021/01/11 01:10:12;;;;;;;3.60;1.10;;;13.60;99.40;;;;;;4142929;34;20182;-87
2021/01/11 01:12:41;;;;;;;5.25;0.62;;;13.60;98.90;;;;;;4141197;34;20061;-89
2021/01/11 01:15:11;;;;;;;9.68;1.20;;;13.50;98.00;;;;;;4123288;34;20163;-89
2021/01/11 01:17:41;;;;;;;6.07;1.20;;;13.50;98.70;;;;;;4140337;34;20139;-92
2021/01/11 01:20:15;;;;;;;7.82;1.85;;;13.40;98.50;;;;;;4146639;34;20073;-90
2021/01/11 01:22:47;;;;;;;5.97;1.10;;;13.40;96.30;;;;;;4146260;34;20134;-92
2021/01/11 01:25:15;;;;;;;7.75;0.93;;;13.50;96.40;;;;;;4137397;34;20204;-88
2021/01/11 01:27:44;;;;;;;10.15;1.67;;;13.30;96.50;;;;;;4136326;34;20096;-89
2021/01/11 01:30:13;;;;;;;5.90;0.82;;;13.30;95.10;;;;;;4124304;34;20080;-91
2021/01/11 01:32:41;;;;;;;7.80;1.23;;;13.40;94.40;;;;;;4120064;34;20499;-87
2021/01/11 01:35:11;;;;;;;3.15;1.27;;;13.30;95.10;;;;;;4113846;34;20091;-88
2021/01/11 01:37:40;;;;;;;9.25;1.73;;;13.30;96.70;;;;;;4118559;34;20123;-89
2021/01/11 01:40:09;;;;;;;4.45;0.95;;;13.40;97.90;;;;;;4122881;34;20457;-91
2021/01/11 01:42:37;;;;;;;3.83;1.20;;;13.40;97.40;;;;;;4146417;34;20210;-87
2021/01/11 01:45:06;;;;;;;5.82;1.50;;;13.50;97.70;;;;;;4138959;34;20408;-89
2021/01/11 01:47:35;;;;;;;1.67;0.85;;;13.50;97.80;;;;;;4120754;34;20103;-91
2021/01/11 01:50:06;;;;;;;11.75;1.92;;;13.50;97.40;;;;;;4136627;34;20186;-85
2021/01/11 01:52:38;;;;;;;3.28;1.27;;;13.50;97.00;;;;;;4144450;34;20535;-89
2021/01/11 01:55:09;;;;;;;2.80;1.15;;;13.50;96.20;;;;;;4150062;34;20186;-88
2021/01/11 01:57:38;;;;;;;5.15;1.30;;;13.40;96.60;;;;;;4130720;34;20064;-91
2021/01/11 02:00:07;;;;;;;7.68;1.45;;;13.40;97.20;;;;;;4151937;34;20065;-88
2021/01/11 02:02:40;;;;;;;5.82;1.58;;;13.30;96.50;;;;;;4136768;34;20161;-86
2021/01/11 02:05:09;;;;;;;5.32;1.48;;;13.50;95.70;;;;;;4131980;34;20157;-87
2021/01/11 02:07:57;;;;;;;1.75;0.95;;;13.40;96.10;;;;;;4137974;34;20105;-88
2021/01/11 02:10:31;;;;;;;3.90;0.95;;;13.40;96.50;;;;;;4134951;34;20522;-88
2021/01/11 02:13:03;;;;;;;6.03;1.40;;;13.40;97.10;;;;;;4135544;34;20082;-90
2021/01/11 02:16:09;;;;;;;9.55;1.52;;;13.30;98.00;;;;;;4132809;34;20652;-87
2021/01/11 02:18:56;;;;;;;7.22;1.48;;;13.30;99.10;;;;;;4144150;34;20124;-88
2021/01/11 02:22:07;;;;;;;4.32;1.08;;;13.30;97.90;;;;;;4134586;34;20492;-88
2021/01/11 02:25:20;;;;;;;3.17;1.10;;;13.40;97.60;;;;;;4115231;34;20404;-89
2021/01/11 02:27:50;;;;;;;3.17;0.82;;;13.40;95.60;;;;;;4140881;34;20117;-87
2021/01/11 02:30:26;;;;;;;3.67;0.73;;;13.40;93.90;;;;;;4134447;34;20497;-88
2021/01/11 02:33:08;;;;;;;4.62;1.02;;;13.40;93.90;;;;;;4119563;34;20733;-91
2021/01/11 02:35:49;;;;;;;9.30;2.30;;;13.40;94.80;;;;;;4144785;34;20500;-86
2021/01/11 02:38:21;;;;;;;11.00;1.65;;;13.40;96.30;;;;;;4138002;34;20127;-87
2021/01/11 02:40:50;;;;;;;4.25;1.02;;;13.40;96.30;;;;;;4125032;34;20178;-92
2021/01/11 02:43:18;;;;;;;8.00;1.52;;;13.50;95.40;;;;;;4142653;34;20069;-90
2021/01/11 02:45:46;;;;;;;5.15;1.37;;;13.50;96.10;;;;;;4126089;34;20166;-87
2021/01/11 02:48:28;;;;;;;7.37;1.92;;;13.30;96.90;;;;;;4114932;34;20140;-91
2021/01/11 02:51:21;;;;;;;5.60;1.20;;;13.30;97.70;;;;;;4128561;34;20138;-87
2021/01/11 02:54:22;;;;;;;7.97;1.70;;;13.40;98.80;;;;;;4135335;34;20410;-89
2021/01/11 02:56:59;;;;;;;8.60;1.42;;;13.50;98.50;;;;;;4134446;34;20060;-92
2021/01/11 02:59:57;;;;;;;4.97;1.35;;;13.60;98.50;;;;;;4122707;34;20111;-89
2021/01/11 03:02:31;;;;;;;6.00;1.35;;;13.60;97.60;;;;;;4116720;34;20057;-92
2021/01/11 03:05:01;;;;;;;3.55;1.42;;;13.60;96.20;;;;;;4137327;34;20133;-93
2021/01/11 03:07:30;;;;;;;9.93;1.87;;;13.60;95.90;;;;;;4143576;34;20142;-88
2021/01/11 03:09:59;;;;;;;6.32;1.08;;;13.50;96.90;;;;;;4144953;34;20079;-88
2021/01/11 03:56:38;;;;;;;9.02;2.30;;;13.70;99.90;;;;;;4609052;29;20097;-86
2021/01/11 03:59:06;;;;;;;5.90;1.83;;;13.60;99.80;;;;;;4136449;34;20097;-88
2021/01/11 04:01:36;;;;;;;7.15;1.50;;;13.70;99.70;;;;;;4099460;34;20119;-86
2021/01/11 04:04:04;;;;;;;4.57;1.30;;;13.60;99.40;;;;;;4124111;34;20386;-87
2021/01/11 04:06:32;;;;;;;5.18;1.20;;;13.70;99.20;;;;;;4131834;34;20412;-87
2021/01/11 04:09:00;;;;;;;6.10;1.25;;;13.70;99.90;;;;;;4111871;34;20065;-86
2021/01/11 04:11:29;;;;;;;9.48;1.58;;;13.60;99.90;;;;;;4113764;34;20034;-88
2021/01/11 04:13:57;;;;;;;5.87;1.20;;;13.60;99.90;;;;;;4111228;34;20100;-90
2021/01/11 04:16:25;;;;;;;4.40;0.70;;;13.50;98.60;;;;;;4104236;34;20115;-89
2021/01/11 04:18:54;;;;;;;5.68;0.85;;;13.60;99.50;;;;;;4108781;34;20104;-86
2021/01/11 04:21:22;;;;;;;3.10;0.90;;;13.60;99.70;;;;;;4116555;34;20101;-86
2021/01/11 04:23:50;;;;;;;2.30;0.98;;;13.60;99.40;;;;;;4130841;34;20073;-85
2021/01/11 04:26:19;;;;;;;3.12;1.08;;;13.60;99.90;;;;;;4132584;34;20359;-88
2021/01/11 04:28:46;;;;;;;3.92;1.00;;;13.50;99.90;;;;;;4117372;34;20096;-92
2021/01/11 04:31:16;;;;;;;1.75;0.88;;;13.50;99.50;;;;;;4125163;34;20158;-90
2021/01/11 04:33:44;;;;;;;3.75;0.77;;;13.50;99.50;;;;;;4120743;34;20484;-90
2021/01/11 04:36:12;;;;;;;6.12;1.48;;;13.50;99.30;;;;;;4111231;34;20119;-92
2021/01/11 04:38:41;;;;;;;7.22;1.42;;;13.50;99.90;;;;;;4136135;34;20420;-94
2021/01/11 04:41:09;;;;;;;6.82;1.30;;;13.40;99.90;;;;;;4126942;34;20128;-88
2021/01/11 04:43:43;;;;;;;4.53;1.33;;;13.30;99.90;;;;;;4127137;34;20101;-89
2021/01/11 04:46:13;;;;;;;3.72;0.80;;;13.30;99.90;;;;;;4125573;34;20111;-92
2021/01/11 04:48:42;;;;;;;3.55;1.10;;;13.40;99.90;;;;;;4127063;34;20125;-89
2021/01/11 04:51:11;;;;;;;3.78;1.00;;;13.50;99.90;;;;;;4121405;34;20083;-86
2021/01/11 04:53:44;;;;;;;4.55;1.20;;;13.50;99.90;;;;;;4115041;34;20079;-89
2021/01/11 04:56:13;;;;;;;2.20;1.08;;;13.50;99.90;;;;;;4134039;34;20087;-90
2021/01/11 04:58:57;;;;;;;5.65;1.52;;;13.50;99.90;;;;;;4102392;34;20076;-92
2021/01/11 05:01:28;;;;;;;3.05;0.65;;;13.40;99.90;;;;;;4126023;34;20133;-89
2021/01/11 05:04:01;;;;;;;5.37;1.50;;;13.40;99.90;;;;;;4119587;34;20170;-90
2021/01/11 05:06:30;;;;;;;3.90;1.42;;;13.40;99.90;;;;;;4124258;34;20120;-88
2021/01/11 05:09:07;;;;;;;9.13;1.70;;;13.40;99.90;;;;;;4119002;34;20120;-87
2021/01/11 05:11:35;;;;;;;6.87;1.40;;;13.50;99.90;;;;;;4122760;34;20060;-93
2021/01/11 05:14:04;;;;;;;3.37;1.35;;;13.60;99.90;;;;;;4127936;34;20045;-88
2021/01/11 05:16:32;;;;;;;5.00;1.30;;;13.60;99.90;;;;;;4131195;34;20124;-91
2021/01/11 05:19:23;;;;;;;6.32;1.20;;;13.60;99.90;;;;;;4129738;34;20101;-86
2021/01/11 05:21:52;;;;;;;2.00;1.02;;;13.60;99.90;;;;;;4111737;34;20088;-86
2021/01/11 05:24:41;;;;;;;7.07;0.85;;;13.60;99.90;;;;;;4129001;34;20373;-91
2021/01/11 05:27:11;;;;;;;4.50;1.48;;;13.60;99.90;;;;;;4145286;34;20077;-86
2021/01/11 05:29:39;;;;;;;5.82;1.40;;;13.60;99.90;;;;;;4136581;34;20412;-87
2021/01/11 05:32:09;;;;;;;3.53;0.68;;;13.60;99.90;;;;;;4121896;34;20169;-86
2021/01/11 05:35:04;;;;;;;4.57;1.10;;;13.60;99.90;;;;;;4126268;34;20066;-88
2021/01/11 05:37:35;;;;;;;6.22;1.10;;;13.60;99.90;;;;;;4112048;34;20186;-87
2021/01/11 05:40:10;;;;;;;3.58;0.90;;;13.60;99.90;;;;;;4130116;34;20147;-86
2021/01/11 05:42:39;;;;;;;7.95;1.45;;;13.70;99.90;;;;;;4119040;34;20146;-91
2021/01/11 05:45:38;;;;;;;9.07;1.50;;;13.60;99.90;;;;;;4111240;34;20096;-89
2021/01/11 05:48:12;;;;;;;5.32;1.10;;;13.60;99.90;;;;;;4131359;34;20103;-86
2021/01/11 05:50:49;;;;;;;4.75;1.37;;;13.60;99.90;;;;;;4129840;34;20065;-87
2021/01/11 05:53:26;;;;;;;8.25;1.40;;;13.70;99.90;;;;;;4115119;34;20469;-88
2021/01/11 05:56:01;;;;;;;7.00;1.77;;;13.70;99.90;;;;;;4109531;34;20108;-91
2021/01/11 05:58:29;;;;;;;2.35;0.82;;;13.60;99.90;;;;;;4126674;34;20072;-91
2021/01/11 06:00:57;;;;;;;5.75;2.28;;;13.60;99.90;;;;;;4128359;34;20366;-85
2021/01/11 06:03:26;;;;;;;6.18;1.42;;;13.60;99.90;;;;;;4138959;34;20064;-86
2021/01/11 06:05:54;;;;;;;3.92;1.27;;;13.50;99.90;;;;;;4114949;34;20029;-87
2021/01/11 06:08:23;;;;;;;8.98;1.42;;;13.50;99.90;;;;;;4132540;34;20533;-89
2021/01/11 06:10:53;;;;;;;5.35;1.08;;;13.50;99.90;;;;;;4113076;34;20064;-88
2021/01/11 06:13:22;;;;;;;8.73;1.87;;;13.50;99.90;;;;;;4135933;34;20116;-91
2021/01/11 06:15:51;;;;;;;4.50;1.58;;;13.50;99.90;;;;;;4113616;34;20080;-89
2021/01/11 06:18:32;;;;;;;8.85;1.40;;;13.50;99.90;;;;;;4116443;34;20150;-87
2021/01/11 06:21:01;;;;;;;7.32;1.33;;;13.60;99.90;;;;;;4117340;34;20213;-88
2021/01/11 06:23:29;;;;;;;6.32;1.20;;;13.70;99.90;;;;;;4125147;34;20079;-88
2021/01/11 06:25:58;;;;;;;4.57;1.27;;;13.70;99.90;;;;;;4113990;34;20135;-90
2021/01/11 06:28:33;;;;;;;3.65;1.25;;;13.70;99.90;;;;;;4125681;34;20088;-89
2021/01/11 06:31:13;;;;;;;7.22;1.30;;;13.70;99.90;;;;;;4129103;34;20120;-88
2021/01/11 06:33:42;;;;;;;3.90;0.98;;;13.70;99.90;;;;;;4121959;34;20540;-90
2021/01/11 06:36:33;;;;;;;5.53;1.27;;;13.60;99.90;;;;;;4096353;34;20064;-88
2021/01/11 06:39:14;;;;;;;4.05;1.17;;;13.60;99.90;;;;;;4134667;34;20111;-87
2021/01/11 06:41:43;;;;;;;6.15;1.15;;;13.60;99.90;;;;;;4128204;34;20061;-88
2021/01/11 06:44:14;;;;;;;0.52;0.52;;;13.30;99.90;;;;;;4123400;34;20057;-91
2021/01/11 06:46:44;;;;;;;4.28;0.50;;;13.20;99.90;;;;;;4121123;34;20101;-91
2021/01/11 06:49:35;;;;;;;3.70;1.12;;;13.10;99.90;;;;;;4130361;34;20124;-89
2021/01/11 06:52:07;;;;;;;4.70;1.30;;;13.00;99.90;;;;;;4118826;34;20118;-87
2021/01/11 06:54:48;;;;;;;5.93;1.27;;;12.90;99.90;;;;;;4110056;34;20129;-87
2021/01/11 06:57:19;;;;;;;4.95;0.90;;;12.90;99.90;;;;;;4131422;34;20128;-88
2021/01/11 06:59:47;;;;;;;6.30;0.85;;;12.80;99.90;;;;;;4131799;34;20539;-90
2021/01/11 07:02:19;;;;;;;1.83;0.60;;;12.80;99.90;;;;;;4111913;34;20117;-90
2021/01/11 07:04:49;;;;;;;3.20;0.90;;;12.80;99.90;;;;;;4126203;34;20188;-89
2021/01/11 07:07:25;;;;;;;6.18;0.82;;;12.80;99.90;;;;;;4109508;34;20126;-90
2021/01/11 07:09:58;;;;;;;5.82;1.90;;;12.70;99.90;;;;;;4120336;34;20516;-88
2021/01/11 07:12:27;;;;;;;5.32;1.20;;;12.60;99.90;;;;;;4110942;34;20045;-92
2021/01/11 07:14:58;;;;;;;12.85;1.60;;;12.60;99.90;;;;;;4112118;34;20128;-90
2021/01/11 07:17:44;;;;;;;9.73;2.40;;;12.50;99.90;;;;;;4125283;34;20056;-88
2021/01/11 07:20:15;;;;;;;8.50;1.00;;;12.40;99.90;;;;;;4119401;34;20525;-89
2021/01/11 07:22:47;;;;;;;6.25;0.93;;;12.40;99.90;;;;;;4123255;34;20073;-90
2021/01/11 07:25:22;;;;;;;4.53;1.23;;;12.60;99.90;;;;;;4132679;34;20102;-89
2021/01/11 07:27:58;;;;;;;9.00;1.98;;;12.60;99.90;;;;;;4133173;34;20122;-88
2021/01/11 07:30:28;;;;;;;9.35;1.73;;;12.60;99.90;;;;;;4121798;34;20057;-90
2021/01/11 07:32:57;;;;;;;6.57;1.08;;;12.30;99.90;;;;;;4130610;34;20118;-89
2021/01/11 07:35:40;;;;;;;6.60;1.67;;;12.20;99.90;;;;;;4113858;34;20425;-89
2021/01/11 07:39:51;;;;;;;13.48;1.77;;;12.10;99.90;;;;;;4124479;34;20104;-92
2021/01/11 07:42:23;;;;;;;7.95;1.20;;;12.10;99.90;;;;;;4139488;34;20099;-90
2021/01/11 07:45:04;;;;;;;6.32;1.35;;;12.00;99.90;;;;;;4124253;34;20144;-89
2021/01/11 07:47:38;;;;;;;4.25;1.33;;;12.00;99.90;;;;;;4143756;34;20113;-93
2021/01/11 07:50:10;;;;;;;3.67;1.20;;;12.10;99.90;;;;;;4107237;34;20083;-93
2021/01/11 07:52:55;;;;;;;3.75;1.25;;;12.30;99.90;;;;;;4103361;34;20401;-88
2021/01/11 07:55:33;;;;;;;3.97;0.82;;;12.40;99.90;;;;;;4119088;29;20087;-90
2021/01/11 07:58:03;;;;;;;4.65;1.70;;;12.50;99.90;;;;;;4137888;34;20092;-89
2021/01/11 08:00:31;;;;;;;6.28;1.50;;;12.60;99.90;;;;;;4123288;34;20105;-90
2021/01/11 08:03:00;;;;;;;3.30;1.33;;;12.50;99.90;;;;;;4114642;34;20097;-92
2021/01/11 08:05:32;;;;;;;11.10;2.22;;;12.60;99.90;;;;;;4124338;34;20140;-91
2021/01/11 08:08:06;;;;;;;3.28;0.90;;;12.70;99.90;;;;;;4121832;34;20080;-90
2021/01/11 08:10:35;;;;;;;6.68;1.58;;;12.90;99.90;;;;;;4124973;34;20088;-90
2021/01/11 08:13:06;;;;;;;4.18;1.15;;;13.10;99.90;;;;;;4136186;34;20095;-88
2021/01/11 08:15:34;;;;;;;11.35;1.40;;;13.30;99.90;;;;;;4109618;34;20065;-94
2021/01/11 08:18:09;;;;;;;2.28;0.82;;;13.40;99.90;;;;;;4124506;34;20056;-89
2021/01/11 08:20:37;;;;;;;2.30;1.25;;;13.90;99.90;;;;;;4125707;34;20098;-89
2021/01/11 08:23:09;;;;;;;5.97;2.00;;;13.90;99.90;;;;;;4129443;34;20103;-89
2021/01/11 08:25:37;;;;;;;17.33;13.48;;;15.10;99.90;;;;;;4117539;34;20148;-92
2021/01/11 08:28:11;;;;;;;10.40;4.95;;;15.00;99.90;;;;;;4140568;34;20089;-89
2021/01/11 08:30:43;;;;;;;4.82;2.67;;;14.60;99.90;;;;;;4137494;34;20504;-93
2021/01/11 08:33:13;;;;;;;7.62;2.78;;;14.30;99.90;;;;;;4129152;34;20065;-90
2021/01/11 08:35:45;;;;;;;13.23;11.82;;;14.10;99.90;;;;;;4136405;34;20383;-89
2021/01/11 08:38:13;;;;;;;12.35;1.75;;;13.90;99.90;;;;;;4136227;34;20224;-90
2021/01/11 08:40:45;;;;;;;8.27;2.10;;;13.90;99.90;;;;;;4132519;34;20122;-90
2021/01/11 08:43:23;;;;;;;6.37;4.45;;;13.90;99.90;;;;;;4142691;34;20306;-90
2021/01/11 08:45:53;;;;;;;7.10;3.08;;;13.90;99.90;;;;;;4118738;34;20069;-90
2021/01/11 08:48:25;;;;;;;5.78;4.80;;;13.70;99.90;;;;;;4129603;34;20064;-89
2021/01/11 08:50:54;;;;;;;12.45;7.70;;;13.30;99.90;;;;;;4132853;34;20057;-89
2021/01/11 08:53:26;;;;;;;2.83;0.60;;;13.00;99.90;;;;;;4132287;34;20267;-93
2021/01/11 08:56:49;;;;;;;4.87;1.55;;;12.70;99.90;;;;;;4128618;34;20069;-91
2021/01/11 08:59:29;;;;;;;4.60;1.23;;;12.50;99.90;;;;;;4117219;34;20116;-89
2021/01/11 09:03:30;;;;;;;6.12;1.23;;;12.50;99.90;;;;;;4130429;34;20123;-88
2021/01/11 09:07:03;;;;;;;11.52;1.35;;;12.50;99.90;;;;;;4111668;34;20058;-90
2021/01/11 09:14:08;;;;;;;7.57;1.48;;;12.80;99.90;;;;;;4128058;34;20057;-90
2021/01/11 09:16:47;;;;;;;5.35;1.58;;;12.90;99.90;;;;;;4128170;34;20072;-89
2021/01/11 09:19:19;;;;;;;8.23;1.83;;;13.00;99.90;;;;;;4130460;34;20144;-89
2021/01/11 09:22:17;;;;;;;15.05;1.77;;;13.20;99.90;;;;;;4145251;34;20085;-92
2021/01/11 09:24:48;;;;;;;5.80;2.22;;;13.40;99.90;;;;;;4128145;34;20450;-90
2021/01/11 13:17:02;;;;;;;4.20;1.65;;;19.00;95.00;;;;;;4484463;28;20146;-89
2021/01/11 13:19:30;;;;;;;4.43;1.65;;;18.70;95.60;;;;;;4129301;34;20507;-91
2021/01/11 13:21:58;;;;;;;5.70;2.37;;;18.60;96.50;;;;;;4144030;34;20389;-88
2021/01/11 13:24:27;;;;;;;2.80;1.70;;;18.80;97.40;;;;;;4138416;34;20231;-88
2021/01/11 13:26:58;;;;;;;7.15;2.35;;;19.40;91.30;;;;;;4120984;34;20084;-87
2021/01/11 13:29:26;;;;;;;6.78;1.67;;;19.00;90.20;;;;;;4137973;34;20060;-87
2021/01/11 13:31:56;;;;;;;6.90;2.05;;;19.00;94.40;;;;;;4133931;34;20106;-89
2021/01/11 13:34:25;;;;;;;6.15;1.40;;;18.90;95.80;;;;;;4125861;34;20064;-85
2021/01/11 13:36:56;;;;;;;5.70;1.87;;;18.30;97.70;;;;;;4142628;34;20142;-86
2021/01/11 13:39:24;;;;;;;6.43;2.67;;;18.70;99.90;;;;;;4128541;34;20526;-86
2021/01/11 13:41:53;;;;;;;7.32;2.67;;;17.60;98.70;;;;;;4135360;34;20512;-86
2021/01/11 13:44:21;;;;;;;6.00;1.60;;;17.40;99.00;;;;;;4132633;34;20151;-86
2021/01/11 13:46:50;;;;;;;3.08;1.12;;;17.00;99.90;;;;;;4127893;34;20041;-85
2021/01/11 13:49:22;;;;;;;9.63;1.62;;;16.50;99.90;;;;;;4122893;34;20488;-85
2021/01/11 13:51:54;;;;;;;10.80;1.55;;;16.60;98.80;;;;;;4124339;34;20091;-90
2021/01/11 13:54:25;;;;;;;4.90;2.00;;;16.60;98.50;;;;;;4124624;34;20544;-86
2021/01/11 13:56:54;;;;;;;3.80;1.40;;;17.10;98.40;;;;;;4112558;34;20069;-87
2021/01/11 13:59:23;;;;;;;5.82;1.27;;;17.10;95.60;;;;;;4127603;34;21388;-90
2021/01/11 14:01:52;;;;;;;9.50;1.77;;;17.10;95.90;;;;;;4136274;34;20096;-88
2021/01/11 14:04:21;;;;;;;7.47;1.23;;;17.30;94.90;;;;;;4131513;34;20205;-87
2021/01/11 14:06:49;;;;;;;7.70;1.73;;;17.30;95.00;;;;;;4138557;34;20139;-88
2021/01/11 14:09:19;;;;;;;5.72;1.60;;;17.40;95.30;;;;;;4131236;34;20458;-90
2021/01/11 14:11:48;;;;;;;4.60;1.00;;;17.50;94.60;;;;;;4121789;34;20052;-89
2021/01/11 14:14:17;;;;;;;5.30;1.27;;;17.50;91.90;;;;;;4132321;34;20052;-86
2021/01/11 14:16:45;;;;;;;2.22;1.25;;;17.50;91.00;;;;;;4138055;34;20118;-87
2021/01/11 14:19:16;;;;;;;5.62;1.83;;;18.10;90.10;;;;;;4137310;34;20088;-88
2021/01/11 14:21:49;;;;;;;5.57;1.62;;;18.50;90.00;;;;;;4113813;34;20064;-90
2021/01/11 14:24:25;;;;;;;4.00;1.83;;;18.20;88.40;;;;;;4124152;34;20082;-90
2021/01/11 14:26:54;;;;;;;1.70;1.42;;;18.50;90.80;;;;;;4139355;34;20153;-87
2021/01/11 14:29:21;;;;;;;4.93;1.50;;;18.40;91.20;;;;;;4136121;34;20087;-90
2021/01/11 14:31:57;;;;;;;3.60;1.70;;;18.20;95.10;;;;;;4128929;34;20107;-89
2021/01/11 14:34:25;;;;;;;7.10;2.50;;;17.50;95.10;;;;;;4121872;34;20342;-90
2021/01/11 14:36:55;;;;;;;3.45;1.90;;;17.60;95.90;;;;;;4139213;34;20039;-88
2021/01/11 14:39:26;;;;;;;2.35;2.05;;;17.50;95.70;;;;;;4131613;34;20083;-88
2021/01/11 14:41:54;;;;;;;7.78;2.40;;;17.40;97.80;;;;;;4128094;34;20104;-92
2021/01/11 14:44:22;;;;;;;12.93;2.30;;;17.20;99.50;;;;;;4132570;34;20369;-91
2021/01/11 14:46:53;;;;;;;9.25;2.95;;;17.00;99.90;;;;;;4127146;34;20470;-93
2021/01/11 14:49:22;;;;;;;5.20;2.37;;;16.90;99.40;;;;;;4117484;34;20116;-91
2021/01/11 14:51:50;;;;;;;3.87;1.37;;;16.80;98.90;;;;;;4133546;34;20451;-90
2021/01/11 14:54:18;;;;;;;5.78;1.00;;;16.60;98.20;;;;;;4143214;34;20120;-88
2021/01/11 14:56:46;;;;;;;2.28;1.15;;;16.50;99.20;;;;;;4140763;34;20147;-92
2021/01/11 14:59:14;;;;;;;5.87;1.48;;;16.50;99.50;;;;;;4135791;34;20429;-91
2021/01/11 15:01:46;;;;;;;6.95;1.15;;;16.60;99.90;;;;;;4133277;34;20521;-91
2021/01/11 15:04:15;;;;;;;3.15;1.33;;;16.80;98.90;;;;;;4122536;34;20064;-88
2021/01/11 15:06:52;;;;;;;4.00;1.05;;;16.90;98.60;;;;;;4133496;34;20156;-89
2021/01/11 15:09:21;;;;;;;3.33;0.85;;;16.90;98.60;;;;;;4133056;34;20094;-90
2021/01/11 15:11:56;;;;;;;4.12;1.65;;;16.80;97.50;;;;;;4116851;34;20090;-90
2021/01/11 15:14:24;;;;;;;4.18;2.12;;;17.00;98.90;;;;;;4129656;34;20161;-87
2021/01/11 15:16:54;;;;;;;4.12;2.20;;;17.00;96.90;;;;;;4124447;34;20098;-89
2021/01/11 15:19:23;;;;;;;8.27;2.60;;;16.90;97.90;;;;;;4127482;34;20044;-90
2021/01/11 15:21:51;;;;;;;2.58;1.12;;;16.70;97.90;;;;;;4134573;34;20068;-90
2021/01/11 15:24:19;;;;;;;6.82;1.55;;;16.70;98.80;;;;;;4124939;34;20065;-91
2021/01/11 15:26:47;;;;;;;4.47;1.48;;;16.60;98.10;;;;;;4125755;34;20876;-90
2021/01/11 15:29:15;;;;;;;4.60;1.10;;;16.40;98.30;;;;;;4130182;34;20098;-90
2021/01/11 15:31:46;;;;;;;4.97;1.15;;;16.20;98.50;;;;;;4139113;34;20494;-93
2021/01/11 15:34:15;;;;;;;6.10;1.12;;;16.20;98.40;;;;;;4119261;34;20118;-92
2021/01/11 15:36:46;;;;;;;4.32;1.30;;;16.30;98.60;;;;;;4131314;34;20060;-92
2021/01/11 15:39:15;;;;;;;5.78;1.08;;;16.60;97.50;;;;;;4121639;34;20602;-93
2021/01/11 15:41:43;;;;;;;6.22;1.10;;;16.50;97.00;;;;;;4115717;34;20436;-93
2021/01/11 15:44:12;;;;;;;2.87;1.35;;;16.40;96.30;;;;;;4146148;34;20152;-92
2021/01/11 15:46:39;;;;;;;2.05;0.95;;;16.70;96.00;;;;;;4143307;34;20116;-89
2021/01/11 15:49:07;;;;;;;2.40;1.17;;;16.90;95.50;;;;;;4139283;34;20135;-90
2021/01/11 15:51:38;;;;;;;1.62;0.90;;;16.80;96.30;;;;;;4121858;34;20452;-90
2021/01/11 15:54:08;;;;;;;2.42;0.85;;;16.50;95.40;;;;;;4150276;34;20056;-89
2021/01/11 15:56:43;;;;;;;2.75;1.42;;;16.30;96.20;;;;;;4139924;34;20453;-92
2021/01/11 15:59:11;;;;;;;3.75;1.80;;;16.50;93.70;;;;;;4146835;34;20131;-92
2021/01/11 16:01:39;;;;;;;3.70;1.00;;;16.70;93.10;;;;;;4134559;34;20110;-90
2021/01/11 16:04:08;;;;;;;6.53;1.80;;;16.70;93.50;;;;;;4144499;34;20392;-88
2021/01/11 16:06:45;;;;;;;1.87;0.98;;;16.70;94.00;;;;;;4130243;34;20099;-90
2021/01/11 16:09:15;;;;;;;1.90;0.80;;;16.50;94.00;;;;;;4132710;34;20509;-86
2021/01/11 16:11:44;;;;;;;4.55;1.00;;;16.50;94.60;;;;;;4141397;34;20445;-90
2021/01/11 16:14:15;;;;;;;3.97;1.12;;;16.60;93.40;;;;;;4135378;34;20125;-89
2021/01/11 16:16:47;;;;;;;5.82;0.93;;;16.40;92.40;;;;;;4110171;34;20122;-90
2021/01/11 16:19:16;;;;;;;3.60;0.80;;;16.30;91.20;;;;;;4136864;34;20124;-91
2021/01/11 16:21:44;;;;;;;1.95;0.80;;;16.30;91.30;;;;;;4135433;34;20077;-88
2021/01/11 16:24:12;;;;;;;1.92;1.00;;;16.20;91.00;;;;;;4112857;34;20502;-93
2021/01/11 16:26:40;;;;;;;2.33;1.40;;;16.20;93.20;;;;;;4120011;34;20184;-91
2021/01/11 16:29:12;;;;;;;6.65;1.00;;;16.20;93.30;;;;;;4122046;34;20118;-91
2021/01/11 16:31:41;;;;;;;2.35;0.70;;;16.20;95.30;;;;;;4135165;34;20438;-92
2021/01/11 16:34:09;;;;;;;3.22;0.98;;;16.30;95.00;;;;;;4124358;34;20374;-92
2021/01/11 16:36:37;;;;;;;4.90;1.02;;;16.10;94.60;;;;;;4136141;34;20119;-92
2021/01/11 16:39:09;;;;;;;5.35;0.82;;;16.10;95.30;;;;;;4123201;34;20135;-88
2021/01/11 16:41:38;;;;;;;4.28;0.70;;;16.10;95.70;;;;;;4131404;34;20354;-89
2021/01/11 16:44:09;;;;;;;3.22;0.70;;;16.00;96.20;;;;;;4135703;34;20080;-91
2021/01/11 16:46:37;;;;;;;3.50;1.25;;;16.10;94.80;;;;;;4130647;34;20373;-89
2021/01/11 16:49:05;;;;;;;1.55;0.52;;;16.10;94.60;;;;;;4116655;34;20115;-90
2021/01/11 16:51:33;;;;;;;6.10;1.10;;;16.00;95.30;;;;;;4135800;34;20112;-89
2021/01/11 16:54:21;;;;;;;2.05;0.68;;;15.90;95.40;;;;;;4132964;34;20067;-93
2021/01/11 16:56:55;;;;;;;3.30;0.98;;;15.90;96.90;;;;;;4129156;34;20056;-89
2021/01/11 16:59:29;;;;;;;5.90;1.42;;;15.90;95.40;;;;;;4131956;34;20141;-91
2021/01/11 17:01:57;;;;;;;5.47;1.40;;;15.90;96.90;;;;;;4130746;34;20418;-90
2021/01/11 17:04:26;;;;;;;1.92;1.08;;;15.90;97.70;;;;;;4141202;34;20065;-90
2021/01/11 17:06:54;;;;;;;2.33;0.90;;;16.00;98.70;;;;;;4135630;34;20068;-89
2021/01/11 17:09:24;;;;;;;4.62;1.80;;;16.00;98.60;;;;;;4143100;34;20412;-92
2021/01/11 17:11:58;;;;;;;8.10;2.65;;;16.00;98.80;;;;;;4133897;34;20324;-91
2021/01/11 17:14:27;;;;;;;5.87;1.55;;;15.90;99.70;;;;;;4135658;34;20462;-91
2021/01/11 17:16:57;;;;;;;2.15;1.30;;;15.60;99.90;;;;;;4126243;34;20119;-89
2021/01/11 17:19:25;;;;;;;3.08;1.60;;;15.50;99.90;;;;;;4113445;34;20063;-85
2021/01/11 17:21:53;;;;;;;5.05;1.30;;;15.40;99.90;;;;;;4146150;34;20126;-85
2021/01/11 17:24:22;;;;;;;6.35;2.42;;;15.30;99.90;;;;;;4124600;34;20399;-88
2021/01/11 17:26:50;;;;;;;4.57;2.12;;;15.20;99.90;;;;;;4126806;34;20118;-88
2021/01/11 17:29:18;;;;;;;5.90;1.08;;;15.30;99.90;;;;;;4137313;34;20238;-88
2021/01/11 17:31:46;;;;;;;4.62;1.37;;;15.10;99.90;;;;;;4134185;34;20559;-87
2021/01/11 17:34:14;;;;;;;3.37;1.20;;;15.00;99.90;;;;;;4150090;34;20110;-90
2021/01/11 17:36:42;;;;;;;3.17;1.30;;;14.90;99.90;;;;;;4134650;34;20505;-88
2021/01/11 17:39:10;;;;;;;2.92;1.50;;;14.80;99.90;;;;;;4132968;34;20138;-85
2021/01/11 17:41:38;;;;;;;4.90;1.35;;;14.70;99.90;;;;;;4125214;34;20521;-92
2021/01/11 17:44:06;;;;;;;5.07;1.40;;;14.70;99.90;;;;;;4135247;34;20064;-89
2021/01/11 17:46:36;;;;;;;7.72;1.30;;;14.60;99.90;;;;;;4140588;34;20069;-88
2021/01/11 17:49:08;;;;;;;6.10;1.75;;;14.50;99.90;;;;;;4125220;34;20398;-86
2021/01/11 17:51:36;;;;;;;3.87;1.45;;;14.50;99.90;;;;;;4124655;34;20125;-85